Time;durP1;ratioP1;P1;durP2;ratioP2;P2;SDS_P1;SDS_P2;PMS_P1;PMS_P2;Temp;Humidity;BMP_temperature;BMP_pressure;BME280_temperature;BME280_humidity;BME280_pressure;Samples;Min_cycle;Max_cycle;Signal;HPM_P1;HPM_P2
2022/01/05 00:01:00;;;;;;;;;0.00;0.00;15.40;99.90;;;;;;5007334;28;10231;-54
2022/01/05 00:03:31;;;;;;;;;0.00;0.00;15.40;99.90;;;;;;5011861;28;10242;-52
2022/01/05 00:06:02;;;;;;;;;0.50;0.50;15.40;99.90;;;;;;5010759;28;10456;-51
2022/01/05 00:08:32;;;;;;;;;0.00;0.00;15.40;99.90;;;;;;5010541;28;10376;-53
2022/01/05 00:11:03;;;;;;;;;0.50;0.50;15.40;99.90;;;;;;5013200;28;10424;-50
2022/01/05 00:13:35;;;;;;;;;1.00;1.00;15.40;99.90;;;;;;5012270;28;10524;-52
2022/01/05 00:16:06;;;;;;;;;0.00;0.00;15.40;99.90;;;;;;5010328;28;10586;-52
2022/01/05 00:18:46;;;;;;;;;0.75;0.75;15.40;99.90;;;;;;5008222;28;10530;-51
2022/01/05 00:21:17;;;;;;;;;1.00;0.75;15.40;99.90;;;;;;5011492;28;10567;-52
2022/01/05 00:23:49;;;;;;;;;3.00;1.00;15.40;99.90;;;;;;4994250;28;11049;-51
2022/01/05 00:26:21;;;;;;;;;0.00;0.00;15.40;99.90;;;;;;4992915;28;10458;-54
2022/01/05 00:28:51;;;;;;;;;0.75;0.75;15.40;99.90;;;;;;4991417;28;10390;-52
2022/01/05 00:31:23;;;;;;;;;0.00;0.00;15.40;99.90;;;;;;5009230;28;10611;-50
2022/01/05 00:33:54;;;;;;;;;1.00;1.00;15.40;99.90;;;;;;5011726;28;10517;-49
2022/01/05 00:36:25;;;;;;;;;3.50;1.00;15.40;99.90;;;;;;5014083;28;10428;-51
2022/01/05 00:38:57;;;;;;;;;2.00;2.00;15.40;99.90;;;;;;4990852;28;10693;-50
2022/01/05 00:41:31;;;;;;;;;1.50;1.50;15.40;99.90;;;;;;5011009;28;10642;-54
2022/01/05 00:44:02;;;;;;;;;1.75;1.75;15.40;99.90;;;;;;5011083;28;10360;-52
2022/01/05 00:46:32;;;;;;;;;1.00;1.00;15.30;99.90;;;;;;5006369;28;10703;-51
2022/01/05 00:49:04;;;;;;;;;2.00;2.00;15.30;99.90;;;;;;5013286;28;10859;-52
2022/01/05 00:51:35;;;;;;;;;2.50;1.00;15.30;99.90;;;;;;4996294;28;10766;-49
2022/01/05 00:54:06;;;;;;;;;1.00;1.00;15.40;99.90;;;;;;5012222;28;10675;-52
2022/01/05 00:56:37;;;;;;;;;2.00;2.00;15.30;99.90;;;;;;5007948;28;10507;-53
2022/01/05 00:59:08;;;;;;;;;1.50;1.50;15.30;99.90;;;;;;5012286;28;11547;-53
2022/01/05 01:01:40;;;;;;;;;2.00;2.00;15.30;99.90;;;;;;5007131;28;10734;-55
2022/01/05 01:04:12;;;;;;;;;3.00;3.00;15.30;99.90;;;;;;5010654;28;10835;-60
2022/01/05 01:06:43;;;;;;;;;1.00;1.00;15.30;99.90;;;;;;5012956;28;10907;-59
2022/01/05 01:09:15;;;;;;;;;2.75;2.75;15.20;99.90;;;;;;5008605;28;11402;-53
2022/01/05 01:11:45;;;;;;;;;1.00;1.00;15.20;99.90;;;;;;5012422;28;10761;-52
2022/01/05 01:14:16;;;;;;;;;3.00;1.00;15.20;99.90;;;;;;5009142;28;10641;-52
2022/01/05 01:16:47;;;;;;;;;1.00;1.00;15.20;99.90;;;;;;4978331;28;10663;-56
2022/01/05 01:19:18;;;;;;;;;2.50;2.50;15.20;99.90;;;;;;5010099;28;10761;-53
2022/01/05 01:21:52;;;;;;;;;1.00;1.00;15.20;99.90;;;;;;4979705;28;10796;-52
2022/01/05 01:24:24;;;;;;;;;1.00;1.00;15.20;99.90;;;;;;4997251;28;10787;-55
2022/01/05 01:26:55;;;;;;;;;0.75;0.75;15.20;99.90;;;;;;4992705;28;10651;-54
2022/01/05 01:29:26;;;;;;;;;1.00;1.00;15.20;99.90;;;;;;5010373;28;10784;-54
2022/01/05 01:31:56;;;;;;;;;2.00;2.00;15.10;99.90;;;;;;4993909;28;10728;-53
2022/01/05 01:34:28;;;;;;;;;2.75;2.75;15.10;99.90;;;;;;5012125;28;10880;-52
2022/01/05 01:36:58;;;;;;;;;2.00;2.00;15.10;99.90;;;;;;4998375;28;10757;-55
2022/01/05 01:39:29;;;;;;;;;3.25;3.25;15.10;99.90;;;;;;5014432;28;10830;-54
2022/01/05 01:42:01;;;;;;;;;1.00;1.00;15.10;99.90;;;;;;4998607;28;10623;-56
2022/01/05 01:44:33;;;;;;;;;4.75;2.50;15.10;99.90;;;;;;5018700;28;11037;-60
2022/01/05 01:47:03;;;;;;;;;2.75;2.75;15.10;99.90;;;;;;5011272;28;10775;-53
2022/01/05 01:49:34;;;;;;;;;1.00;1.00;15.00;99.90;;;;;;5013917;28;11084;-59
2022/01/05 01:52:07;;;;;;;;;2.25;2.25;15.00;99.90;;;;;;5012883;28;10719;-60
2022/01/05 01:54:38;;;;;;;;;2.00;2.00;15.00;99.90;;;;;;5016783;28;10663;-50
2022/01/05 01:57:14;;;;;;;;;2.25;2.25;15.00;99.90;;;;;;5018032;28;10676;-52
2022/01/05 01:59:48;;;;;;;;;4.00;4.00;14.90;99.90;;;;;;5000290;28;10761;-54
2022/01/05 02:02:19;;;;;;;;;4.00;4.00;14.90;99.90;;;;;;5018966;28;10962;-52
2022/01/05 02:04:50;;;;;;;;;3.25;3.25;14.90;99.90;;;;;;5015969;28;11033;-54
2022/01/05 02:07:21;;;;;;;;;1.75;1.75;14.90;99.90;;;;;;5018187;28;11404;-59
2022/01/05 02:09:52;;;;;;;;;1.25;1.25;14.90;99.90;;;;;;4998309;28;11686;-59
2022/01/05 02:12:26;;;;;;;;;1.00;1.00;14.90;99.90;;;;;;5015059;28;10823;-49
2022/01/05 02:14:58;;;;;;;;;2.00;2.00;14.90;99.90;;;;;;5013492;28;10784;-54
2022/01/05 02:17:50;;;;;;;;;1.00;1.00;14.90;99.90;;;;;;4998727;28;10665;-52
2022/01/05 02:20:25;;;;;;;;;1.00;1.00;14.80;99.90;;;;;;5014107;28;10823;-60
2022/01/05 02:22:56;;;;;;;;;0.00;0.00;14.90;99.90;;;;;;4998102;28;10672;-59
2022/01/05 02:25:27;;;;;;;;;1.00;1.00;14.90;99.90;;;;;;4997994;28;11149;-54
2022/01/05 02:27:57;;;;;;;;;1.00;1.00;14.90;99.90;;;;;;5015893;28;10605;-54
2022/01/05 02:30:30;;;;;;;;;2.75;1.00;14.80;99.90;;;;;;5016642;28;10977;-58
2022/01/05 02:33:01;;;;;;;;;1.00;1.00;14.80;99.90;;;;;;5015819;28;10797;-59
2022/01/05 02:35:33;;;;;;;;;2.75;1.50;14.80;99.90;;;;;;4995406;28;10750;-51
2022/01/05 02:38:04;;;;;;;;;1.00;1.00;14.80;99.90;;;;;;4997605;28;10830;-51
2022/01/05 02:40:34;;;;;;;;;0.75;0.75;14.80;99.90;;;;;;5013813;28;11604;-60
2022/01/05 02:43:05;;;;;;;;;1.25;1.25;14.80;99.90;;;;;;5001146;28;10694;-58
2022/01/05 02:45:35;;;;;;;;;0.00;0.00;14.80;99.90;;;;;;4993956;28;10821;-55
2022/01/05 02:48:06;;;;;;;;;0.25;0.25;14.80;99.90;;;;;;5010061;28;11438;-54
2022/01/05 02:50:37;;;;;;;;;0.50;0.50;14.80;99.90;;;;;;5012645;28;10915;-60
2022/01/05 02:53:09;;;;;;;;;1.00;1.00;14.70;99.90;;;;;;5015501;28;10679;-59
2022/01/05 02:55:40;;;;;;;;;1.25;1.25;14.70;99.90;;;;;;4995487;28;10916;-54
2022/01/05 02:58:14;;;;;;;;;1.50;0.50;14.70;99.90;;;;;;5009555;28;11152;-52
2022/01/05 03:00:46;;;;;;;;;1.75;1.00;14.70;99.90;;;;;;5009974;28;10796;-53
2022/01/05 03:03:17;;;;;;;;;1.00;1.00;14.70;99.90;;;;;;5018603;28;10866;-53
2022/01/05 03:05:48;;;;;;;;;1.00;1.00;14.70;99.90;;;;;;5014606;28;10865;-52
2022/01/05 03:08:20;;;;;;;;;0.50;0.50;14.70;99.90;;;;;;5017411;28;10868;-51
2022/01/05 03:10:51;;;;;;;;;1.50;1.50;14.60;99.90;;;;;;5019037;28;10938;-49
2022/01/05 03:13:23;;;;;;;;;2.00;2.00;14.60;99.90;;;;;;5014857;28;10897;-52
2022/01/05 03:15:56;;;;;;;;;2.00;2.00;14.60;99.90;;;;;;4999398;28;10906;-53
2022/01/05 03:18:26;;;;;;;;;2.00;2.00;14.60;99.90;;;;;;5013711;28;10927;-53
2022/01/05 03:20:57;;;;;;;;;4.00;2.00;14.60;99.90;;;;;;4998585;28;11910;-52
2022/01/05 03:23:27;;;;;;;;;2.50;2.50;14.60;99.90;;;;;;4995377;28;11110;-53
2022/01/05 03:25:57;;;;;;;;;2.75;2.75;14.60;99.90;;;;;;5012550;28;11182;-53
2022/01/05 03:28:29;;;;;;;;;3.00;3.00;14.50;99.90;;;;;;5002983;28;11057;-50
2022/01/05 03:31:00;;;;;;;;;0.00;0.00;14.50;99.90;;;;;;5014631;28;11117;-53
2022/01/05 03:33:31;;;;;;;;;1.00;1.00;14.50;99.90;;;;;;5013655;28;10910;-52
2022/01/05 03:36:03;;;;;;;;;0.00;0.00;14.50;99.90;;;;;;5016244;28;11127;-53
2022/01/05 03:38:34;;;;;;;;;2.75;2.75;14.50;99.90;;;;;;5015480;28;10871;-53
2022/01/05 03:41:08;;;;;;;;;2.75;2.75;14.50;99.90;;;;;;5011174;28;11166;-52
2022/01/05 03:43:42;;;;;;;;;1.00;1.00;14.50;99.90;;;;;;4995277;28;11076;-53
2022/01/05 03:46:13;;;;;;;;;3.00;1.50;14.50;99.90;;;;;;5017877;28;10921;-54
2022/01/05 03:48:44;;;;;;;;;1.75;1.75;14.40;99.90;;;;;;5012489;28;10999;-52
2022/01/05 03:51:15;;;;;;;;;3.25;3.25;14.40;99.90;;;;;;4997988;28;10955;-53
2022/01/05 03:53:46;;;;;;;;;1.50;1.50;14.40;99.90;;;;;;4995874;28;11269;-53
2022/01/05 03:56:17;;;;;;;;;1.50;1.50;14.40;99.90;;;;;;4996979;28;11514;-53
2022/01/05 03:58:49;;;;;;;;;1.25;1.25;14.40;99.90;;;;;;5014606;28;11270;-51
2022/01/05 04:01:20;;;;;;;;;2.75;2.75;14.40;99.90;;;;;;5008936;28;11191;-53
2022/01/05 04:03:51;;;;;;;;;1.75;1.75;14.30;99.90;;;;;;5017845;28;11188;-53
2022/01/05 04:06:22;;;;;;;;;4.75;4.75;14.30;99.90;;;;;;5013334;28;11154;-54
2022/01/05 04:08:53;;;;;;;;;4.75;4.75;14.30;99.90;;;;;;4980181;28;11117;-51
2022/01/05 04:11:24;;;;;;;;;3.75;3.75;14.30;99.90;;;;;;5010527;28;11440;-53
2022/01/05 04:13:54;;;;;;;;;3.00;3.00;14.30;99.90;;;;;;5014852;28;11356;-59
2022/01/05 04:16:25;;;;;;;;;2.75;2.75;14.30;99.90;;;;;;5013643;28;11516;-53
2022/01/05 04:18:56;;;;;;;;;2.50;2.50;14.20;99.90;;;;;;4980712;28;11448;-54
2022/01/05 04:21:29;;;;;;;;;4.25;4.25;14.20;99.90;;;;;;5012965;28;11471;-54
2022/01/05 04:23:59;;;;;;;;;6.75;6.75;14.20;99.90;;;;;;5013327;28;11579;-52
2022/01/05 04:26:30;;;;;;;;;7.50;7.50;14.20;99.90;;;;;;5009280;28;11475;-53
2022/01/05 04:29:00;;;;;;;;;6.00;6.00;14.20;99.90;;;;;;5016190;28;11443;-54
2022/01/05 04:31:32;;;;;;;;;10.50;10.50;14.10;99.90;;;;;;4998426;28;11488;-52
2022/01/05 04:34:02;;;;;;;;;6.25;6.25;14.10;99.90;;;;;;5010810;28;11474;-52
2022/01/05 04:36:53;;;;;;;;;9.50;8.00;14.10;99.90;;;;;;5016357;28;11422;-52
2022/01/05 04:39:23;;;;;;;;;12.75;11.50;14.10;99.90;;;;;;5013204;28;11531;-53
2022/01/05 04:41:58;;;;;;;;;11.50;9.75;14.10;99.90;;;;;;5013510;28;11493;-53
2022/01/05 04:44:28;;;;;;;;;6.25;6.25;14.10;99.90;;;;;;5015456;28;11469;-55
2022/01/05 04:47:00;;;;;;;;;5.00;5.00;14.10;99.90;;;;;;5011417;28;11471;-52
2022/01/05 04:49:30;;;;;;;;;3.50;3.50;14.10;99.90;;;;;;5016943;28;11451;-54
2022/01/05 04:52:03;;;;;;;;;2.00;2.00;14.00;99.90;;;;;;5013845;28;11577;-52
2022/01/05 04:54:36;;;;;;;;;3.75;3.00;14.10;99.90;;;;;;5014760;28;11629;-55
2022/01/05 04:57:07;;;;;;;;;4.25;4.25;14.10;99.90;;;;;;5013009;28;11600;-53
2022/01/05 04:59:40;;;;;;;;;2.00;2.00;14.00;99.90;;;;;;5011948;28;11480;-57
2022/01/05 05:02:14;;;;;;;;;3.00;3.00;14.00;99.90;;;;;;5001662;28;11505;-54
2022/01/05 05:04:44;;;;;;;;;3.00;3.00;14.00;99.90;;;;;;5012872;28;11123;-52
2022/01/05 05:07:14;;;;;;;;;4.00;4.00;14.00;99.90;;;;;;5011500;28;11583;-50
2022/01/05 05:09:44;;;;;;;;;3.75;3.75;14.00;99.90;;;;;;5015737;28;11444;-51
2022/01/05 05:12:15;;;;;;;;;3.50;3.50;13.90;99.90;;;;;;4985801;28;11616;-51
2022/01/05 05:14:46;;;;;;;;;4.75;4.75;13.90;99.90;;;;;;5018154;28;11415;-50
2022/01/05 05:17:18;;;;;;;;;4.25;4.25;13.90;99.90;;;;;;5018349;28;11490;-51
2022/01/05 05:19:48;;;;;;;;;3.00;3.00;13.90;99.90;;;;;;5018634;28;11448;-52
2022/01/05 05:22:20;;;;;;;;;3.75;3.00;13.90;99.90;;;;;;5022390;28;11467;-54
2022/01/05 05:24:50;;;;;;;;;4.00;4.00;13.90;99.90;;;;;;5016623;28;11455;-53
2022/01/05 05:27:21;;;;;;;;;3.50;3.50;13.90;99.90;;;;;;5012732;28;11574;-53
2022/01/05 05:29:52;;;;;;;;;0.25;0.25;13.90;99.90;;;;;;5014565;28;11410;-53
2022/01/05 05:32:23;;;;;;;;;3.00;3.00;13.90;99.90;;;;;;5014580;28;11489;-49
2022/01/05 05:34:54;;;;;;;;;3.25;3.25;13.80;99.90;;;;;;5014541;28;11585;-50
2022/01/05 05:37:25;;;;;;;;;1.75;1.75;13.80;99.90;;;;;;5015628;28;11592;-52
2022/01/05 05:39:55;;;;;;;;;2.25;2.25;13.80;99.90;;;;;;5015423;28;11412;-51
2022/01/05 05:42:26;;;;;;;;;2.00;2.00;13.70;99.90;;;;;;5016545;28;11465;-53
2022/01/05 05:44:57;;;;;;;;;2.00;2.00;13.80;99.90;;;;;;5014433;28;11585;-54
2022/01/05 05:47:28;;;;;;;;;1.00;1.00;13.80;99.90;;;;;;5007559;28;11431;-55
2022/01/05 05:49:59;;;;;;;;;3.25;3.25;13.70;99.90;;;;;;5015120;28;11452;-54
2022/01/05 05:52:29;;;;;;;;;3.00;3.00;13.80;99.90;;;;;;4995637;28;11485;-55
2022/01/05 05:55:02;;;;;;;;;2.50;2.50;13.80;99.90;;;;;;5015632;28;11481;-54
2022/01/05 05:57:44;;;;;;;;;2.00;2.00;13.80;99.90;;;;;;5010510;28;12211;-56
2022/01/05 06:00:17;;;;;;;;;3.00;3.00;13.70;99.90;;;;;;5017747;28;11438;-53
2022/01/05 06:02:47;;;;;;;;;4.25;3.00;13.70;99.90;;;;;;4997113;28;11502;-54
2022/01/05 06:05:18;;;;;;;;;3.50;3.00;13.70;99.90;;;;;;5015469;28;11473;-54
2022/01/05 06:07:49;;;;;;;;;2.00;2.00;13.70;99.90;;;;;;4997700;28;11427;-53
2022/01/05 06:10:19;;;;;;;;;2.00;2.00;13.70;99.90;;;;;;5013911;28;12320;-54
2022/01/05 06:12:50;;;;;;;;;2.50;1.75;13.70;99.90;;;;;;4993785;28;11428;-51
2022/01/05 06:15:22;;;;;;;;;3.50;3.00;13.60;99.90;;;;;;5001431;28;11461;-52
2022/01/05 06:17:53;;;;;;;;;2.00;2.00;13.70;99.90;;;;;;4998524;28;11583;-53
2022/01/05 06:20:25;;;;;;;;;3.50;3.50;13.70;99.90;;;;;;5014925;28;11426;-54
2022/01/05 06:22:56;;;;;;;;;3.00;3.00;13.60;99.90;;;;;;4992663;28;11575;-53
2022/01/05 06:25:27;;;;;;;;;2.75;2.75;13.60;99.90;;;;;;5015164;28;11507;-53
2022/01/05 06:27:58;;;;;;;;;3.00;3.00;13.60;99.90;;;;;;4996709;28;11490;-54
2022/01/05 06:30:28;;;;;;;;;3.50;3.50;13.60;99.90;;;;;;4999565;28;11443;-52
2022/01/05 06:33:00;;;;;;;;;3.25;3.25;13.60;99.90;;;;;;5013104;28;11492;-53
2022/01/05 06:35:30;;;;;;;;;2.00;2.00;13.60;99.90;;;;;;5014119;28;12379;-54
2022/01/05 06:38:02;;;;;;;;;3.00;3.00;13.60;99.90;;;;;;5013861;28;11448;-54
2022/01/05 06:40:33;;;;;;;;;4.25;3.00;13.60;99.90;;;;;;5012309;28;11420;-52
2022/01/05 06:43:06;;;;;;;;;3.50;2.00;13.50;99.90;;;;;;4982716;28;11456;-52
2022/01/05 06:45:36;;;;;;;;;3.75;3.75;13.50;99.90;;;;;;5010818;28;11413;-52
2022/01/05 06:48:07;;;;;;;;;3.50;3.50;13.50;99.90;;;;;;5017489;28;12210;-52
2022/01/05 06:50:37;;;;;;;;;3.00;3.00;13.50;99.90;;;;;;4995234;28;11470;-53
2022/01/05 06:53:09;;;;;;;;;2.25;2.25;13.50;99.90;;;;;;5015488;28;11446;-53
2022/01/05 06:55:45;;;;;;;;;4.00;4.00;13.50;99.90;;;;;;5011086;28;11591;-53
2022/01/05 06:58:14;;;;;;;;;3.00;3.00;13.50;99.90;;;;;;5014965;28;11593;-54
2022/01/05 07:00:46;;;;;;;;;5.00;5.00;13.50;99.90;;;;;;5013042;28;11446;-51
2022/01/05 07:03:19;;;;;;;;;2.00;2.00;13.50;99.90;;;;;;5014538;28;12319;-52
2022/01/05 07:05:50;;;;;;;;;1.75;1.75;13.50;99.90;;;;;;5009256;28;11446;-51
2022/01/05 07:08:19;;;;;;;;;3.00;3.00;13.50;99.90;;;;;;4995146;28;11594;-51
2022/01/05 07:10:49;;;;;;;;;2.50;1.75;13.50;99.90;;;;;;5012365;28;11483;-52
2022/01/05 07:13:22;;;;;;;;;3.25;3.00;13.50;99.90;;;;;;5013712;28;11506;-54
2022/01/05 07:15:53;;;;;;;;;4.50;4.50;13.50;99.90;;;;;;5009706;28;11408;-52
2022/01/05 07:18:24;;;;;;;;;3.50;3.50;13.50;99.90;;;;;;5013123;28;11498;-54
2022/01/05 07:20:55;;;;;;;;;3.00;3.00;13.50;99.90;;;;;;5012737;28;11140;-53
2022/01/05 07:23:26;;;;;;;;;4.75;3.00;13.50;99.90;;;;;;5013511;28;11475;-52
2022/01/05 07:25:57;;;;;;;;;6.00;4.00;13.50;99.90;;;;;;4995876;28;11473;-52
2022/01/05 07:28:28;;;;;;;;;3.00;3.00;13.50;99.90;;;;;;5012269;28;11783;-51
2022/01/05 07:31:01;;;;;;;;;4.25;4.25;13.50;99.90;;;;;;5010140;28;11484;-53
2022/01/05 07:33:31;;;;;;;;;3.00;3.00;13.50;99.90;;;;;;5013631;28;11527;-52
2022/01/05 07:36:03;;;;;;;;;4.50;4.50;13.50;99.90;;;;;;5015937;28;11457;-51
2022/01/05 07:38:37;;;;;;;;;3.75;3.75;13.50;99.90;;;;;;5010078;28;11399;-51
2022/01/05 07:41:07;;;;;;;;;3.00;3.00;13.50;99.90;;;;;;5014815;28;11472;-51
2022/01/05 07:43:40;;;;;;;;;3.50;3.25;13.40;99.90;;;;;;5012893;28;11492;-53
2022/01/05 07:46:10;;;;;;;;;3.00;3.00;13.50;99.90;;;;;;5009965;28;11490;-50
2022/01/05 07:48:45;;;;;;;;;2.50;2.50;13.50;99.90;;;;;;5011454;28;11442;-52
2022/01/05 07:51:15;;;;;;;;;3.00;3.00;13.50;99.90;;;;;;5013876;28;11439;-54
2022/01/05 07:53:48;;;;;;;;;3.75;3.75;13.50;99.90;;;;;;5014505;28;11462;-51
2022/01/05 07:56:21;;;;;;;;;3.75;2.00;13.50;99.90;;;;;;5010126;28;12313;-53
2022/01/05 07:58:52;;;;;;;;;3.25;2.50;13.50;99.90;;;;;;5013870;28;11461;-52
2022/01/05 08:01:23;;;;;;;;;1.25;1.25;13.50;99.90;;;;;;5009980;28;11588;-52
2022/01/05 08:03:53;;;;;;;;;4.25;4.25;13.50;99.90;;;;;;5014640;28;11502;-55
2022/01/05 08:06:24;;;;;;;;;4.50;4.00;13.50;99.90;;;;;;5010166;28;12246;-53
2022/01/05 08:08:55;;;;;;;;;2.00;2.00;13.50;99.90;;;;;;5014938;28;11439;-51
2022/01/05 08:11:26;;;;;;;;;2.00;2.00;13.50;99.90;;;;;;5009657;28;11507;-52
2022/01/05 08:13:57;;;;;;;;;2.75;2.00;13.50;99.90;;;;;;5014927;28;11498;-50
2022/01/05 08:16:27;;;;;;;;;3.00;2.00;13.50;99.90;;;;;;4996867;28;11579;-54
2022/01/05 08:18:58;;;;;;;;;3.50;1.50;13.50;99.90;;;;;;5013990;28;12270;-52
2022/01/05 08:21:29;;;;;;;;;5.00;3.00;13.50;99.90;;;;;;5014795;28;11459;-48
2022/01/05 08:23:59;;;;;;;;;3.00;3.00;13.40;99.90;;;;;;5010321;28;11975;-51
2022/01/05 08:26:29;;;;;;;;;3.00;1.00;13.40;99.90;;;;;;5007504;28;11455;-52
2022/01/05 08:29:01;;;;;;;;;2.25;2.25;13.40;99.90;;;;;;5014308;28;11580;-52
2022/01/05 08:31:33;;;;;;;;;2.00;2.00;13.50;99.90;;;;;;5008789;28;11443;-53
2022/01/05 08:34:04;;;;;;;;;2.00;2.00;13.40;99.90;;;;;;4999954;28;12223;-50
2022/01/05 08:36:34;;;;;;;;;3.50;3.25;13.50;99.90;;;;;;5013366;28;11430;-53
2022/01/05 08:39:05;;;;;;;;;1.50;1.50;13.40;99.90;;;;;;5014106;28;11443;-51
2022/01/05 08:41:36;;;;;;;;;5.00;3.25;13.50;99.90;;;;;;5011838;28;11231;-49
2022/01/05 08:44:07;;;;;;;;;3.50;2.25;13.50;99.90;;;;;;5012279;28;11477;-52
2022/01/05 08:46:39;;;;;;;;;1.00;1.00;13.50;99.90;;;;;;4994475;28;12265;-51
2022/01/05 08:49:15;;;;;;;;;3.00;2.75;13.50;99.90;;;;;;5002531;28;11473;-49
2022/01/05 08:51:44;;;;;;;;;2.00;0.25;13.40;99.90;;;;;;4995439;28;11424;-51
2022/01/05 08:54:15;;;;;;;;;1.50;1.50;13.40;99.90;;;;;;4994103;28;12159;-53
2022/01/05 08:56:48;;;;;;;;;1.00;1.00;13.50;99.90;;;;;;5015637;28;11460;-54
2022/01/05 08:59:18;;;;;;;;;1.00;1.00;13.50;99.90;;;;;;5013046;28;11508;-51
2022/01/05 09:01:50;;;;;;;;;2.00;2.00;13.50;99.90;;;;;;5012763;28;11465;-52
2022/01/05 09:04:22;;;;;;;;;1.50;1.50;13.50;99.90;;;;;;5013247;28;11452;-54
2022/01/05 09:06:54;;;;;;;;;2.00;2.00;13.50;99.90;;;;;;5007291;28;11555;-53
2022/01/05 09:09:24;;;;;;;;;2.00;2.00;13.50;99.90;;;;;;5008623;28;11431;-52
2022/01/05 09:11:55;;;;;;;;;2.00;2.00;13.50;99.90;;;;;;4985368;28;11514;-51
2022/01/05 09:14:26;;;;;;;;;1.00;1.00;13.50;99.90;;;;;;4992947;28;11448;-51
2022/01/05 09:16:58;;;;;;;;;2.00;2.00;13.50;99.90;;;;;;4991517;28;11602;-49
2022/01/05 09:19:29;;;;;;;;;4.25;4.25;13.40;99.90;;;;;;4992302;28;12200;-51
2022/01/05 09:22:00;;;;;;;;;3.00;3.00;13.50;99.90;;;;;;4992656;28;11602;-51
2022/01/05 09:24:51;;;;;;;;;2.00;2.00;13.50;99.90;;;;;;4992498;28;11486;-53
2022/01/05 09:27:21;;;;;;;;;2.50;2.50;13.50;99.90;;;;;;4992216;28;11458;-51
2022/01/05 09:29:52;;;;;;;;;2.75;2.75;13.50;99.90;;;;;;4994154;28;11482;-54
2022/01/05 09:32:26;;;;;;;;;2.00;2.00;13.50;99.90;;;;;;4994596;28;11365;-50
2022/01/05 09:34:57;;;;;;;;;5.50;4.00;13.40;99.90;;;;;;4993022;28;11485;-53
2022/01/05 09:37:32;;;;;;;;;2.75;2.75;13.50;99.90;;;;;;4996007;28;11481;-52
2022/01/05 09:42:56;;;;;;;;;6.50;5.50;13.50;99.90;;;;;;4993739;28;11492;-52
2022/01/05 09:45:29;;;;;;;;;9.25;9.00;13.50;99.90;;;;;;4991832;28;11497;-54
2022/01/05 09:48:44;;;;;;;;;11.00;9.00;13.50;99.90;;;;;;5010651;28;11617;-54
2022/01/05 09:51:19;;;;;;;;;9.75;8.25;13.50;99.90;;;;;;5007198;28;11509;-53
2022/01/05 09:53:51;;;;;;;;;12.00;11.00;13.50;99.90;;;;;;4986405;28;11536;-53
2022/01/05 09:56:44;;;;;;;;;13.25;13.25;13.40;99.90;;;;;;4996711;28;11520;-53
2022/01/05 09:59:16;;;;;;;;;11.50;9.25;13.50;99.90;;;;;;4995741;28;11511;-50
2022/01/05 10:01:49;;;;;;;;;20.75;19.00;13.50;99.90;;;;;;5006487;28;11525;-53
2022/01/05 10:04:21;;;;;;;;;13.00;12.75;13.50;99.90;;;;;;4992627;28;11575;-52
2022/01/05 10:06:52;;;;;;;;;10.00;10.00;13.50;99.90;;;;;;4988953;28;11591;-52
2022/01/05 10:09:21;;;;;;;;;18.75;17.50;13.40;99.90;;;;;;4985581;28;11573;-50
2022/01/05 10:11:52;;;;;;;;;11.75;9.75;13.40;99.90;;;;;;5002211;28;11588;-47
2022/01/05 10:14:23;;;;;;;;;13.75;12.25;13.40;99.90;;;;;;4991192;28;11568;-52
2022/01/05 10:17:05;;;;;;;;;11.00;11.00;13.40;99.90;;;;;;4994600;28;11577;-51
2022/01/05 10:19:36;;;;;;;;;14.50;14.50;13.40;99.90;;;;;;5007641;28;11549;-51
2022/01/05 10:22:33;;;;;;;;;13.25;12.25;13.40;99.90;;;;;;4993222;28;11573;-52
2022/01/05 10:25:18;;;;;;;;;11.00;11.00;13.40;99.90;;;;;;4977243;28;11530;-51
2022/01/05 10:27:58;;;;;;;;;14.50;13.25;13.40;99.90;;;;;;4994440;28;11572;-53
2022/01/05 10:30:40;;;;;;;;;15.00;12.75;13.30;99.90;;;;;;4995082;28;11580;-52
2022/01/05 10:33:12;;;;;;;;;7.00;5.75;13.30;99.90;;;;;;4995606;28;11678;-54
2022/01/05 10:35:56;;;;;;;;;10.00;9.25;13.40;99.90;;;;;;5000438;28;11491;-52
2022/01/05 10:38:29;;;;;;;;;11.75;11.75;13.40;99.90;;;;;;4996653;28;11501;-51
2022/01/05 10:41:19;;;;;;;;;12.00;12.00;13.40;99.90;;;;;;4999687;28;11997;-50
2022/01/05 10:44:17;;;;;;;;;11.00;11.00;13.40;99.90;;;;;;4996517;28;11565;-52
2022/01/05 10:46:53;;;;;;;;;11.25;11.25;13.40;99.90;;;;;;4993284;28;11673;-52
2022/01/05 10:49:34;;;;;;;;;7.00;7.00;13.40;99.90;;;;;;4996022;28;11546;-52
2022/01/05 10:52:31;;;;;;;;;12.00;11.00;13.40;99.90;;;;;;4999497;28;11481;-53
2022/01/05 10:55:15;;;;;;;;;9.25;9.00;13.40;99.90;;;;;;4997323;28;11553;-53
2022/01/05 10:58:01;;;;;;;;;10.50;10.50;13.40;99.90;;;;;;4995031;28;11548;-50
2022/01/05 11:00:52;;;;;;;;;10.00;10.00;13.40;99.90;;;;;;4981205;28;11537;-52
2022/01/05 11:03:39;;;;;;;;;9.75;8.25;13.40;99.90;;;;;;5011006;28;11568;-52
2022/01/05 11:06:18;;;;;;;;;10.00;10.00;13.40;99.90;;;;;;4993606;28;11482;-51
2022/01/05 11:09:02;;;;;;;;;7.25;7.00;13.40;99.90;;;;;;5012242;28;11474;-52
2022/01/05 11:11:50;;;;;;;;;11.75;11.75;13.40;99.90;;;;;;5006704;28;11508;-54
2022/01/05 11:14:29;;;;;;;;;6.75;6.75;13.40;99.90;;;;;;5012733;28;11674;-52
2022/01/05 11:17:03;;;;;;;;;9.75;9.75;13.40;99.90;;;;;;5015237;28;11471;-52
2022/01/05 11:19:36;;;;;;;;;8.50;8.50;13.40;99.90;;;;;;5011347;28;11903;-50
2022/01/05 11:22:14;;;;;;;;;7.25;7.25;13.40;99.90;;;;;;5016892;28;12208;-50
2022/01/05 11:24:53;;;;;;;;;10.00;9.25;13.30;99.90;;;;;;5013002;28;11869;-52
2022/01/05 11:27:26;;;;;;;;;12.00;10.25;13.30;99.90;;;;;;5016778;28;11596;-52
2022/01/05 11:29:58;;;;;;;;;9.50;8.00;13.30;99.90;;;;;;5010009;28;11560;-52
2022/01/05 11:32:31;;;;;;;;;8.25;8.25;13.40;99.90;;;;;;5016365;28;11447;-53
2022/01/05 11:35:07;;;;;;;;;6.25;6.00;13.30;99.90;;;;;;5011606;28;12043;-53
2022/01/05 11:37:37;;;;;;;;;8.00;7.00;13.30;99.90;;;;;;5016735;28;11511;-52
2022/01/05 11:40:08;;;;;;;;;3.00;3.00;13.30;99.90;;;;;;5012363;28;11485;-53
2022/01/05 11:42:40;;;;;;;;;8.25;8.25;13.30;99.90;;;;;;4998059;28;11407;-53
2022/01/05 11:45:48;;;;;;;;;8.50;7.75;13.30;99.90;;;;;;5015356;28;11471;-54
2022/01/05 11:48:22;;;;;;;;;6.00;4.25;13.30;99.90;;;;;;4930955;28;11546;-51
2022/01/05 11:50:59;;;;;;;;;8.25;7.00;13.30;99.90;;;;;;5003147;28;11460;-49
2022/01/05 11:53:38;;;;;;;;;7.00;7.00;13.30;99.90;;;;;;4998065;28;11455;-51
2022/01/05 11:56:13;;;;;;;;;7.50;6.75;13.30;99.90;;;;;;5015319;28;11428;-52
2022/01/05 11:59:03;;;;;;;;;5.75;5.75;13.30;99.90;;;;;;5013916;28;11487;-54
2022/01/05 12:01:37;;;;;;;;;5.50;5.50;13.30;99.90;;;;;;5013991;28;11421;-52
2022/01/05 12:04:11;;;;;;;;;5.00;4.00;13.30;99.90;;;;;;5017493;28;11391;-52
2022/01/05 12:06:47;;;;;;;;;4.00;4.00;13.20;99.90;;;;;;4992764;28;11438;-51
2022/01/05 12:09:26;;;;;;;;;5.00;5.00;13.30;99.90;;;;;;5013010;28;11405;-51
2022/01/05 12:12:21;;;;;;;;;5.00;5.00;13.20;99.90;;;;;;5013636;28;11457;-54
2022/01/05 12:14:52;;;;;;;;;5.25;5.25;13.20;99.90;;;;;;4999921;28;11452;-52
2022/01/05 12:17:23;;;;;;;;;4.50;4.50;13.20;99.90;;;;;;5013447;28;11939;-53
2022/01/05 12:19:55;;;;;;;;;3.50;3.50;13.20;99.90;;;;;;5015564;28;11431;-50
2022/01/05 12:22:29;;;;;;;;;6.75;5.50;13.20;99.90;;;;;;5015000;28;11415;-52
2022/01/05 12:25:05;;;;;;;;;4.00;4.00;13.20;99.90;;;;;;4993112;28;11482;-52
2022/01/05 12:27:39;;;;;;;;;7.00;5.25;13.20;99.90;;;;;;5012288;28;11420;-52
2022/01/05 12:30:21;;;;;;;;;5.50;5.50;13.20;99.90;;;;;;5012794;28;12192;-53
2022/01/05 12:33:29;;;;;;;;;5.50;5.25;13.20;99.90;;;;;;4997654;28;11485;-53
2022/01/05 12:36:02;;;;;;;;;5.00;5.00;13.20;99.90;;;;;;4999203;28;11496;-52
2022/01/05 12:38:40;;;;;;;;;6.00;6.00;13.20;99.90;;;;;;5013339;28;11505;-51
2022/01/05 12:41:28;;;;;;;;;6.25;5.00;13.20;99.90;;;;;;5015805;28;12128;-53
2022/01/05 12:44:19;;;;;;;;;5.25;5.25;13.20;99.90;;;;;;5012315;28;11571;-53
2022/01/05 12:46:52;;;;;;;;;4.75;4.75;13.20;99.90;;;;;;4996572;28;11579;-54
2022/01/05 12:49:32;;;;;;;;;5.50;4.50;13.20;99.90;;;;;;5012322;28;11460;-53
2022/01/05 12:52:15;;;;;;;;;7.50;5.75;13.20;99.90;;;;;;5014150;28;11462;-53
2022/01/05 12:54:57;;;;;;;;;6.50;6.50;13.20;99.90;;;;;;5013569;28;11491;-53
2022/01/05 12:57:29;;;;;;;;;6.00;6.00;13.20;99.90;;;;;;5009027;28;11440;-53
2022/01/05 13:00:00;;;;;;;;;5.00;4.25;13.10;99.90;;;;;;5007133;28;12288;-50
2022/01/05 13:02:31;;;;;;;;;2.00;2.00;13.20;99.90;;;;;;5016925;28;11413;-51
2022/01/05 13:05:06;;;;;;;;;4.00;3.00;13.20;99.90;;;;;;5013916;28;12322;-53
2022/01/05 13:07:41;;;;;;;;;4.75;4.75;13.20;99.90;;;;;;4994755;28;11617;-53
2022/01/05 13:10:14;;;;;;;;;5.75;4.25;13.20;99.90;;;;;;5011558;28;11463;-52
2022/01/05 13:12:44;;;;;;;;;6.00;6.00;13.20;99.90;;;;;;5014808;28;11445;-54
2022/01/05 13:15:15;;;;;;;;;6.00;6.00;13.10;99.90;;;;;;4992886;28;11411;-54
2022/01/05 13:17:47;;;;;;;;;6.25;6.25;13.20;99.90;;;;;;5013424;28;11576;-53
2022/01/05 13:20:18;;;;;;;;;5.00;5.00;13.20;99.90;;;;;;5015049;28;11424;-51